createdAt,value
2022-12-03T00:00:38.676Z,11.38
2022-12-03T00:03:05.532Z,12.70
2022-12-03T00:05:32.625Z,12.20
2022-12-03T00:07:59.585Z,12.70
2022-12-03T00:10:26.426Z,12.68
2022-12-03T00:12:53.171Z,12.63
2022-12-03T00:15:20.023Z,14.38
2022-12-03T00:17:46.893Z,14.98
2022-12-03T00:20:22.843Z,14.27
2022-12-03T00:22:50.369Z,15.70
2022-12-03T00:25:17.570Z,14.18
2022-12-03T00:27:44.443Z,14.00
2022-12-03T00:30:13.995Z,14.50
2022-12-03T00:32:41.891Z,14.48
2022-12-03T00:35:09.117Z,13.50
2022-12-03T00:37:36.125Z,15.07
2022-12-03T00:40:06.768Z,16.98
2022-12-03T00:42:33.586Z,16.25
2022-12-03T00:45:00.442Z,16.40
2022-12-03T00:47:27.227Z,13.55
2022-12-03T00:49:54.049Z,13.27
2022-12-03T00:52:20.996Z,16.90
2022-12-03T00:54:49.183Z,15.35
2022-12-03T00:57:16.193Z,16.30
2022-12-03T00:59:42.952Z,18.08
2022-12-03T01:02:09.740Z,16.65
2022-12-03T01:04:36.679Z,29.08
2022-12-03T01:07:03.701Z,36.40
2022-12-03T01:09:31.551Z,28.23
2022-12-03T01:11:58.346Z,20.88
2022-12-03T01:14:25.136Z,21.02
2022-12-03T01:16:51.994Z,25.38
2022-12-03T01:19:19.582Z,40.00
2022-12-03T01:21:51.465Z,47.17
2022-12-03T01:24:19.324Z,48.33
2022-12-03T01:26:46.416Z,30.73
2022-12-03T01:29:13.573Z,49.85
2022-12-03T01:31:59.256Z,42.78
2022-12-03T01:34:26.128Z,56.17
2022-12-03T01:36:52.947Z,63.38
2022-12-03T01:39:20.183Z,66.63
2022-12-03T01:41:49.353Z,31.63
2022-12-03T01:44:21.565Z,27.20
2022-12-03T01:46:50.930Z,93.00
2022-12-03T01:49:22.303Z,47.15
2022-12-03T01:51:51.834Z,29.95
2022-12-03T01:54:22.287Z,43.92
2022-12-03T01:56:49.520Z,34.35
2022-12-03T01:59:20.130Z,34.25
2022-12-03T02:01:46.966Z,29.98
2022-12-03T02:04:16.131Z,24.40
2022-12-03T02:06:44.637Z,78.28
2022-12-03T02:09:13.036Z,29.83
2022-12-03T02:11:47.376Z,27.15
2022-12-03T02:14:20.118Z,35.03
2022-12-03T02:16:47.061Z,51.67
2022-12-03T02:19:24.460Z,50.10
2022-12-03T02:21:58.993Z,47.78
2022-12-03T02:24:52.823Z,33.35
2022-12-03T02:27:20.004Z,40.33
2022-12-03T02:29:47.189Z,35.28
2022-12-03T02:32:14.011Z,30.75
2022-12-03T02:34:42.338Z,22.92
2022-12-03T02:37:13.611Z,21.73
2022-12-03T02:39:47.346Z,19.42
2022-12-03T02:42:32.672Z,20.65
2022-12-03T02:45:05.291Z,20.13
2022-12-03T02:47:35.430Z,20.90
2022-12-03T02:50:03.135Z,19.40
2022-12-03T02:52:30.323Z,25.42
2022-12-03T02:54:57.375Z,18.77
2022-12-03T02:57:24.212Z,20.65
2022-12-03T02:59:51.283Z,21.75
2022-12-03T03:02:18.619Z,20.67
2022-12-03T03:04:45.564Z,21.30
2022-12-03T03:07:12.873Z,21.63
2022-12-03T03:09:39.883Z,19.75
2022-12-03T03:12:06.779Z,23.20
2022-12-03T03:14:33.838Z,26.70
2022-12-03T03:17:00.804Z,22.23
2022-12-03T03:19:28.794Z,20.35
2022-12-03T03:21:55.762Z,21.15
2022-12-03T03:24:23.346Z,23.35
2022-12-03T03:26:50.528Z,23.58
2022-12-03T03:29:17.545Z,21.30
2022-12-03T03:31:46.219Z,23.48
2022-12-03T03:34:14.104Z,22.15
2022-12-03T03:36:41.376Z,23.33
2022-12-03T03:39:09.629Z,23.65
2022-12-03T03:41:36.908Z,21.45
2022-12-03T03:44:06.530Z,24.08
2022-12-03T03:46:35.180Z,21.35
2022-12-03T03:49:03.965Z,22.80
2022-12-03T03:51:31.684Z,21.25
2022-12-03T03:53:58.744Z,22.23
2022-12-03T03:56:25.774Z,20.45
2022-12-03T03:58:52.812Z,23.25
2022-12-03T04:01:20.695Z,21.05
2022-12-03T04:03:47.672Z,22.63
2022-12-03T04:06:14.528Z,22.55
2022-12-03T04:08:41.381Z,22.55
2022-12-03T04:11:26.590Z,20.90
2022-12-03T04:13:53.390Z,22.80
2022-12-03T04:16:20.249Z,22.25
2022-12-03T04:18:47.276Z,20.65
2022-12-03T04:21:55.488Z,22.52
2022-12-03T04:24:23.944Z,20.98
2022-12-03T04:27:09.269Z,21.65
2022-12-03T04:29:36.801Z,22.55
2022-12-03T04:32:22.331Z,35.15
2022-12-03T04:35:07.997Z,24.67
2022-12-03T04:37:34.835Z,25.30
2022-12-03T04:40:01.678Z,23.00
2022-12-03T04:42:28.454Z,25.55
2022-12-03T04:44:58.477Z,26.83
2022-12-03T04:47:25.276Z,20.25
2022-12-03T04:49:52.221Z,24.42
2022-12-03T04:52:21.010Z,24.70
2022-12-03T04:54:47.994Z,23.48
2022-12-03T04:57:14.828Z,24.63
2022-12-03T04:59:41.645Z,23.05
2022-12-03T05:02:10.987Z,23.17
2022-12-03T05:04:37.945Z,22.58
2022-12-03T05:07:05.658Z,25.60
2022-12-03T05:09:35.030Z,25.48
2022-12-03T05:12:02.413Z,28.48
2022-12-03T05:14:31.016Z,24.90
2022-12-03T05:16:57.971Z,26.25
2022-12-03T05:19:48.718Z,16.45
2022-12-03T05:22:15.830Z,25.00
2022-12-03T05:24:45.663Z,26.77
2022-12-03T05:27:16.613Z,24.63
2022-12-03T05:29:45.999Z,24.60
2022-12-03T05:32:16.853Z,23.17
2022-12-03T05:34:44.155Z,27.75
2022-12-03T05:37:13.655Z,29.35
2022-12-03T05:39:43.320Z,22.83
2022-12-03T05:42:30.689Z,27.02
2022-12-03T05:44:58.717Z,23.98
2022-12-03T05:47:25.535Z,28.67
2022-12-03T05:49:52.807Z,28.70
2022-12-03T05:52:21.848Z,22.90
2022-12-03T05:54:50.484Z,28.98
2022-12-03T05:57:17.792Z,33.20
2022-12-03T05:59:45.399Z,30.98
2022-12-03T06:02:13.753Z,27.13
2022-12-03T06:04:40.688Z,34.50
2022-12-03T06:07:13.776Z,27.02
2022-12-03T06:09:47.331Z,30.60
2022-12-03T06:12:14.912Z,30.48
2022-12-03T06:14:46.559Z,26.23
2022-12-03T06:17:17.607Z,31.17
2022-12-03T06:19:45.687Z,29.35
2022-12-03T06:22:13.604Z,28.15
2022-12-03T06:24:43.045Z,29.63
2022-12-03T06:27:10.955Z,27.75
2022-12-03T06:29:38.744Z,26.00
2022-12-03T06:32:06.356Z,26.23
2022-12-03T06:34:33.479Z,30.73
2022-12-03T06:37:04.634Z,25.42
2022-12-03T06:39:32.344Z,27.67
2022-12-03T06:42:01.700Z,30.15
2022-12-03T06:44:28.850Z,26.00
2022-12-03T06:46:55.964Z,27.27
2022-12-03T06:49:28.160Z,27.05
2022-12-03T06:51:56.135Z,28.08
2022-12-03T06:54:23.590Z,27.05
2022-12-03T06:56:50.485Z,31.08
2022-12-03T06:59:17.519Z,26.08
2022-12-03T07:01:46.329Z,27.63
2022-12-03T07:04:16.399Z,27.85
2022-12-03T07:06:43.947Z,30.40
2022-12-03T07:09:12.330Z,26.77
2022-12-03T07:11:43.840Z,28.52
2022-12-03T07:14:12.056Z,26.98
2022-12-03T07:16:43.615Z,27.02
2022-12-03T07:19:12.128Z,26.55
2022-12-03T07:21:39.817Z,30.98
2022-12-03T07:24:07.520Z,25.75
2022-12-03T07:26:34.560Z,28.58
2022-12-03T07:29:02.059Z,30.10
2022-12-03T07:31:29.086Z,29.38
2022-12-03T07:33:56.112Z,29.75
2022-12-03T07:36:23.161Z,35.08
2022-12-03T07:38:51.662Z,29.60
2022-12-03T07:41:18.527Z,28.42
2022-12-03T07:43:46.965Z,32.90
2022-12-03T07:46:15.331Z,30.50
2022-12-03T07:48:49.564Z,28.95
2022-12-03T07:51:18.074Z,30.35
2022-12-03T07:53:46.537Z,38.40
2022-12-03T07:56:13.572Z,44.40
2022-12-03T07:58:43.375Z,31.05
2022-12-03T08:01:12.707Z,40.72
2022-12-03T08:03:40.855Z,31.48
2022-12-03T08:06:07.816Z,32.60
2022-12-03T08:08:34.741Z,33.30
2022-12-03T08:11:02.369Z,31.92
2022-12-03T08:13:29.298Z,33.97
2022-12-03T08:16:01.423Z,36.55
2022-12-03T08:18:28.818Z,30.23
2022-12-03T08:20:56.170Z,32.95
2022-12-03T08:23:26.077Z,29.48
2022-12-03T08:25:53.400Z,31.45
2022-12-03T08:28:23.815Z,30.98
2022-12-03T08:31:01.209Z,29.73
2022-12-03T08:33:37.073Z,30.02
2022-12-03T08:36:15.034Z,32.05
2022-12-03T08:38:48.218Z,40.72
2022-12-03T08:41:36.586Z,32.13
2022-12-03T08:44:32.627Z,35.58
2022-12-03T08:47:10.529Z,30.88
2022-12-03T08:49:37.807Z,33.15
2022-12-03T08:52:16.585Z,34.20
2022-12-03T08:54:45.462Z,37.40
2022-12-03T08:57:27.774Z,38.35
2022-12-03T09:00:01.320Z,44.33
2022-12-03T09:02:34.541Z,38.08
2022-12-03T09:05:21.059Z,50.50
2022-12-03T09:07:48.051Z,39.15
2022-12-03T09:10:17.453Z,41.88
2022-12-03T09:12:44.868Z,40.72
2022-12-03T09:15:11.866Z,47.47
2022-12-03T09:17:38.821Z,36.50
2022-12-03T09:20:06.848Z,34.15
2022-12-03T09:22:33.838Z,34.78
2022-12-03T09:25:00.812Z,33.55
2022-12-03T09:27:27.914Z,33.00
2022-12-03T09:29:54.841Z,32.53
2022-12-03T09:32:21.889Z,30.33
2022-12-03T09:34:49.172Z,31.08
2022-12-03T09:37:17.491Z,31.60
2022-12-03T09:39:45.554Z,30.92
2022-12-03T09:42:13.281Z,32.00
2022-12-03T09:44:40.566Z,33.45
2022-12-03T09:47:08.841Z,28.73
2022-12-03T09:49:37.918Z,32.72
2022-12-03T09:52:06.859Z,30.73
2022-12-03T09:54:34.616Z,35.38
2022-12-03T09:57:04.155Z,30.25
2022-12-03T09:59:33.467Z,31.67
2022-12-03T10:02:01.582Z,30.02
2022-12-03T10:04:29.479Z,28.92
2022-12-03T10:06:58.713Z,36.35
2022-12-03T10:09:30.595Z,29.10
2022-12-03T10:11:59.783Z,35.33
2022-12-03T10:14:29.371Z,31.98
2022-12-03T10:16:56.777Z,27.65
2022-12-03T10:19:27.776Z,29.33
2022-12-03T10:21:56.336Z,30.55
2022-12-03T10:24:35.154Z,26.52
2022-12-03T10:27:25.235Z,29.73
2022-12-03T10:29:58.580Z,24.52
2022-12-03T10:32:29.449Z,25.92
2022-12-03T10:35:41.269Z,24.30
2022-12-03T10:38:23.342Z,67.10
2022-12-03T10:40:51.121Z,56.67
2022-12-03T10:43:24.353Z,28.55
2022-12-03T10:46:04.811Z,26.80
2022-12-03T10:48:32.095Z,26.77
2022-12-03T10:51:05.207Z,22.00
2022-12-03T10:53:35.774Z,22.38
2022-12-03T10:56:05.897Z,21.38
2022-12-03T10:58:39.260Z,16.92
2022-12-03T11:01:15.314Z,20.50
2022-12-03T11:03:42.600Z,23.45
2022-12-03T11:06:16.776Z,21.20
2022-12-03T11:08:53.022Z,18.85
2022-12-03T11:11:29.251Z,20.88
2022-12-03T11:14:04.159Z,25.75
2022-12-03T11:16:40.099Z,20.77
2022-12-03T11:19:13.101Z,20.15
2022-12-03T11:22:05.185Z,27.87
2022-12-03T11:24:34.560Z,36.42
2022-12-03T11:27:07.588Z,35.55
2022-12-03T11:29:58.906Z,28.13
2022-12-03T11:32:45.975Z,27.98
2022-12-03T11:35:25.972Z,19.92
2022-12-03T11:37:54.224Z,25.58
2022-12-03T11:40:21.886Z,16.05
2022-12-03T11:42:49.342Z,17.65
2022-12-03T11:45:29.565Z,13.23
2022-12-03T11:48:13.954Z,16.20
2022-12-03T11:51:00.652Z,24.20
2022-12-03T11:53:31.893Z,16.73
2022-12-03T11:56:10.988Z,15.02
2022-12-03T11:58:43.479Z,19.55
2022-12-03T12:01:12.674Z,14.98
2022-12-03T12:03:49.512Z,21.25
2022-12-03T12:06:23.104Z,14.68
2022-12-03T12:08:51.161Z,24.10
2022-12-03T12:11:20.639Z,31.30
2022-12-03T12:14:03.989Z,31.20
2022-12-03T12:16:50.844Z,32.78
2022-12-03T12:19:36.202Z,25.35
2022-12-03T12:22:28.197Z,25.25
2022-12-03T12:25:04.073Z,28.13
2022-12-03T12:27:32.776Z,25.70
2022-12-03T12:30:16.055Z,27.33
2022-12-03T12:32:47.606Z,27.55
2022-12-03T12:35:18.671Z,27.67
2022-12-03T12:37:59.687Z,26.63
2022-12-03T12:40:30.651Z,26.42
2022-12-03T12:43:05.392Z,23.58
2022-12-03T12:45:37.083Z,26.27
2022-12-03T12:48:09.881Z,26.33
2022-12-03T12:50:38.861Z,23.70
2022-12-03T12:53:20.997Z,24.88
2022-12-03T12:56:01.612Z,22.15
2022-12-03T12:58:32.077Z,25.30
2022-12-03T13:01:04.147Z,23.75
2022-12-03T13:03:38.486Z,36.05
2022-12-03T13:06:05.942Z,54.88
2022-12-03T13:08:39.941Z,94.57
2022-12-03T13:11:19.271Z,85.20
2022-12-03T13:13:46.341Z,174.38
2022-12-03T13:16:28.256Z,28.63
2022-12-03T13:18:57.476Z,21.30
2022-12-03T13:21:31.260Z,46.60
2022-12-03T13:24:01.057Z,35.92
2022-12-03T13:26:41.494Z,74.10
2022-12-03T13:29:14.988Z,32.08
2022-12-03T13:31:52.510Z,32.58
2022-12-03T13:34:22.644Z,23.05
2022-12-03T13:36:57.950Z,23.05
2022-12-03T13:39:30.850Z,22.08
2022-12-03T13:42:34.252Z,19.83
2022-12-03T13:45:06.526Z,20.75
2022-12-03T13:47:34.239Z,19.10
2022-12-03T13:50:12.141Z,15.68
2022-12-03T13:52:39.393Z,17.95
2022-12-03T13:55:13.859Z,15.85
2022-12-03T13:57:40.702Z,14.13
2022-12-03T14:00:08.297Z,16.00
2022-12-03T14:02:40.396Z,15.98
2022-12-03T14:05:08.774Z,14.93
2022-12-03T14:07:35.704Z,13.20
2022-12-03T14:10:03.087Z,15.32
2022-12-03T14:12:34.033Z,14.30
2022-12-03T14:15:06.112Z,14.95
2022-12-03T14:17:34.283Z,15.13
2022-12-03T14:20:02.953Z,11.25
2022-12-03T14:22:30.750Z,15.15
2022-12-03T14:24:59.474Z,11.68
2022-12-03T14:27:27.678Z,16.70
2022-12-03T14:29:55.132Z,20.83
2022-12-03T14:32:23.183Z,15.20
2022-12-03T14:34:50.055Z,14.13
2022-12-03T14:37:18.342Z,14.02
2022-12-03T14:39:45.188Z,10.75
2022-12-03T14:42:15.331Z,14.82
2022-12-03T14:44:47.543Z,13.50
2022-12-03T14:47:17.219Z,14.82
2022-12-03T14:49:44.187Z,12.82
2022-12-03T14:52:12.634Z,11.88
2022-12-03T14:54:42.858Z,20.58
2022-12-03T14:57:12.820Z,14.93
2022-12-03T14:59:45.226Z,14.48
2022-12-03T15:02:12.828Z,12.43
2022-12-03T15:04:41.469Z,12.00
2022-12-03T15:07:09.179Z,13.20
2022-12-03T15:09:37.427Z,14.57
2022-12-03T15:12:05.195Z,13.95
2022-12-03T15:14:32.414Z,13.23
2022-12-03T15:17:00.385Z,13.43
2022-12-03T15:19:27.374Z,12.23
2022-12-03T15:21:54.317Z,12.48
2022-12-03T15:24:21.402Z,10.98
2022-12-03T15:26:49.778Z,13.85
2022-12-03T15:29:16.593Z,9.70
2022-12-03T15:31:44.733Z,13.20
2022-12-03T15:34:11.728Z,12.30
2022-12-03T15:36:39.148Z,11.55
2022-12-03T15:39:05.992Z,21.30
2022-12-03T15:41:32.912Z,24.52
2022-12-03T15:44:02.216Z,22.65
2022-12-03T15:46:29.760Z,14.20
2022-12-03T15:48:57.701Z,15.50
2022-12-03T15:51:25.010Z,13.60
2022-12-03T15:53:51.998Z,13.27
2022-12-03T15:56:18.937Z,14.70
2022-12-03T15:58:46.391Z,24.70
2022-12-03T16:01:14.112Z,18.17
2022-12-03T16:03:41.874Z,16.98
2022-12-03T16:06:24.205Z,15.85
2022-12-03T16:08:51.156Z,12.70
2022-12-03T16:11:19.113Z,13.23
2022-12-03T16:13:45.974Z,12.65
2022-12-03T16:16:12.910Z,14.27
2022-12-03T16:18:41.118Z,16.60
2022-12-03T16:21:08.017Z,14.88
2022-12-03T16:23:34.871Z,13.52
2022-12-03T16:26:01.810Z,13.45
2022-12-03T16:28:28.705Z,14.85
2022-12-03T16:30:55.662Z,28.55
2022-12-03T16:33:27.256Z,25.77
2022-12-03T16:35:54.960Z,25.92
2022-12-03T16:38:22.198Z,28.63
2022-12-03T16:40:49.131Z,22.55
2022-12-03T16:43:16.449Z,22.42
2022-12-03T16:45:46.200Z,15.75
2022-12-03T16:48:13.265Z,18.58
2022-12-03T16:50:40.180Z,19.38
2022-12-03T16:53:07.458Z,20.88
2022-12-03T16:55:34.469Z,61.78
2022-12-03T16:58:01.775Z,33.63
2022-12-03T17:00:29.005Z,23.05
2022-12-03T17:02:55.999Z,16.35
2022-12-03T17:05:22.975Z,11.07
2022-12-03T17:07:49.907Z,13.68
2022-12-03T17:10:16.937Z,14.93
2022-12-03T17:13:08.216Z,14.35
2022-12-03T17:15:31.455Z,14.20
2022-12-03T17:17:58.613Z,16.20
2022-12-03T17:20:25.740Z,15.45
2022-12-03T17:22:52.573Z,14.35
2022-12-03T17:25:19.603Z,13.40
2022-12-03T17:27:46.411Z,14.75
2022-12-03T17:30:14.310Z,12.55
2022-12-03T17:32:41.561Z,17.33
2022-12-03T17:35:09.229Z,15.23
2022-12-03T17:37:36.497Z,14.73
2022-12-03T17:40:08.234Z,20.70
2022-12-03T17:42:35.112Z,16.70
2022-12-03T17:45:02.329Z,15.27
2022-12-03T17:47:29.500Z,15.43
2022-12-03T17:49:56.529Z,14.52
2022-12-03T17:52:23.589Z,14.57
2022-12-03T17:55:09.672Z,16.75
2022-12-03T17:57:37.224Z,17.10
2022-12-03T18:00:04.885Z,16.88
2022-12-03T18:02:39.242Z,19.13
2022-12-03T18:05:06.399Z,15.07
2022-12-03T18:07:33.386Z,15.07
2022-12-03T18:10:00.275Z,16.25
2022-12-03T18:12:27.215Z,18.45
2022-12-03T18:14:54.043Z,15.88
2022-12-03T18:17:20.866Z,13.82
2022-12-03T18:19:47.868Z,14.88
2022-12-03T18:22:15.007Z,13.65
2022-12-03T18:24:43.311Z,21.50
2022-12-03T18:27:11.801Z,20.42
2022-12-03T18:29:38.705Z,25.42
2022-12-03T18:32:27.133Z,17.98
2022-12-03T18:34:54.275Z,21.33
2022-12-03T18:37:22.571Z,22.17
2022-12-03T18:39:49.404Z,20.05
2022-12-03T18:42:21.240Z,22.27
2022-12-03T18:44:50.091Z,17.02
2022-12-03T18:47:22.377Z,16.33
2022-12-03T18:49:49.220Z,15.93
2022-12-03T18:52:18.289Z,16.67
2022-12-03T18:54:45.303Z,16.42
2022-12-03T18:57:12.331Z,14.70
2022-12-03T18:59:39.610Z,15.05
2022-12-03T19:02:08.084Z,16.23
2022-12-03T19:04:34.960Z,13.88
2022-12-03T19:07:03.470Z,13.80
2022-12-03T19:09:30.650Z,14.95
2022-12-03T19:11:57.605Z,15.45
2022-12-03T19:14:24.390Z,14.73
2022-12-03T19:16:52.082Z,15.27
2022-12-03T19:19:22.379Z,20.05
2022-12-03T19:21:49.393Z,36.55
2022-12-03T19:24:28.515Z,26.38
2022-12-03T19:27:07.997Z,38.55
2022-12-03T19:29:44.971Z,26.80
2022-12-03T19:32:20.592Z,117.90
2022-12-03T19:35:02.224Z,88.88
2022-12-03T19:37:35.489Z,27.30
2022-12-03T19:40:07.550Z,30.05
2022-12-03T19:42:38.184Z,19.90
2022-12-03T19:45:11.729Z,24.38
2022-12-03T19:47:47.795Z,20.80
2022-12-03T19:50:22.628Z,19.30
2022-12-03T19:52:49.657Z,22.15
2022-12-03T19:55:19.631Z,16.08
2022-12-03T19:57:46.767Z,17.67
2022-12-03T20:00:14.306Z,19.55
2022-12-03T20:02:41.403Z,17.17
2022-12-03T20:05:08.826Z,21.33
2022-12-03T20:07:35.927Z,17.60
2022-12-03T20:10:03.810Z,26.88
2022-12-03T20:12:30.959Z,34.08
2022-12-03T20:14:57.748Z,21.95
2022-12-03T20:17:24.573Z,18.38
2022-12-03T20:19:51.681Z,18.52
2022-12-03T20:22:18.625Z,15.05
2022-12-03T20:24:45.414Z,18.17
2022-12-03T20:27:12.336Z,24.65
2022-12-03T20:29:39.618Z,33.97
2022-12-03T20:32:07.162Z,22.52
2022-12-03T20:34:37.140Z,16.85
2022-12-03T20:37:04.064Z,17.02
2022-12-03T20:39:31.956Z,16.67
2022-12-03T20:41:58.733Z,17.60
2022-12-03T20:44:25.698Z,16.42
2022-12-03T20:46:52.521Z,18.65
2022-12-03T20:49:19.347Z,16.75
2022-12-03T20:51:46.158Z,20.40
2022-12-03T20:54:12.915Z,17.65
2022-12-03T20:56:39.744Z,16.80
2022-12-03T20:59:10.416Z,18.27
2022-12-03T21:01:38.661Z,16.83
2022-12-03T21:04:07.394Z,20.25
2022-12-03T21:06:36.293Z,20.45
2022-12-03T21:09:06.600Z,15.10
2022-12-03T21:11:35.907Z,19.40
2022-12-03T21:14:04.301Z,18.40
2022-12-03T21:17:06.058Z,15.80
2022-12-03T21:19:22.416Z,14.95
2022-12-03T21:21:49.243Z,17.13
2022-12-03T21:24:16.086Z,16.95
2022-12-03T21:26:42.907Z,14.52
2022-12-03T21:29:09.784Z,18.48
2022-12-03T21:31:38.514Z,16.13
2022-12-03T21:34:05.601Z,21.17
2022-12-03T21:36:32.612Z,16.55
2022-12-03T21:38:59.608Z,13.68
2022-12-03T21:41:26.517Z,11.95
2022-12-03T21:43:53.550Z,11.60
2022-12-03T21:47:12.464Z,13.48
2022-12-03T21:49:07.325Z,14.60
2022-12-03T21:51:34.228Z,13.20
2022-12-03T21:54:01.238Z,14.43
2022-12-03T21:56:30.461Z,12.45
2022-12-03T21:58:57.402Z,14.52
2022-12-03T22:01:24.766Z,13.77
2022-12-03T22:03:52.555Z,14.27
2022-12-03T22:06:19.776Z,14.65
2022-12-03T22:08:46.650Z,15.73
2022-12-03T22:11:17.270Z,16.98
2022-12-03T22:13:44.674Z,14.48
2022-12-03T22:16:17.076Z,12.88
2022-12-03T22:18:44.198Z,32.65
2022-12-03T22:21:15.415Z,15.27
2022-12-03T22:23:42.558Z,12.07
2022-12-03T22:26:13.122Z,17.88
2022-12-03T22:28:43.740Z,13.35
2022-12-03T22:31:11.599Z,15.77
2022-12-03T22:33:39.204Z,15.10
2022-12-03T22:36:16.403Z,13.93
2022-12-03T22:38:47.740Z,15.48
2022-12-03T22:41:15.019Z,15.65
2022-12-03T22:43:42.985Z,12.68
2022-12-03T22:46:12.972Z,14.15
2022-12-03T22:48:41.868Z,12.52
2022-12-03T22:51:17.668Z,12.40
2022-12-03T22:53:44.536Z,13.65
2022-12-03T22:56:11.430Z,10.43
2022-12-03T22:58:39.792Z,10.90
2022-12-03T23:01:07.080Z,13.15
2022-12-03T23:03:34.040Z,12.82
2022-12-03T23:06:00.891Z,10.23
2022-12-03T23:08:27.647Z,12.77
2022-12-03T23:10:54.560Z,10.73
2022-12-03T23:13:21.335Z,13.23
2022-12-03T23:15:52.361Z,12.77
2022-12-03T23:18:20.216Z,12.25
2022-12-03T23:20:50.390Z,12.20
2022-12-03T23:23:18.505Z,14.00
2022-12-03T23:25:56.621Z,16.95
2022-12-03T23:28:23.600Z,15.07
2022-12-03T23:30:50.582Z,13.95
2022-12-03T23:33:17.573Z,14.32
2022-12-03T23:35:44.421Z,18.52
2022-12-03T23:38:11.446Z,14.80
2022-12-03T23:40:39.608Z,13.60
2022-12-03T23:43:09.088Z,11.82
2022-12-03T23:45:35.949Z,12.75
2022-12-03T23:48:03.040Z,12.65
2022-12-03T23:50:30.127Z,12.23
2022-12-03T23:52:57.008Z,11.88
2022-12-03T23:55:24.015Z,13.07
2022-12-03T23:57:50.790Z,12.85
